Mitchell, Canada
Current Conditions -  °F | °C
As of 5:00 PM on Sunday 21 Dec 2014 (Local Time) from CYXU Reporting Station
Few Clouds Few Clouds  
Wind Chill: 22°   Ceiling: Unl
Heat Index: 28°   Visibility: 10mi
Dew Point: 21°   Wind: 6mph
Humidity: 74%   Direction: 170°S
Pressure: 30.25"   Gusts: NA
Location:  43.47°N, 81.18°W
Report Text: CYXU 212200Z 17005KT 10SM FEW025 FEW230 M02/M06 A3025 RMK SC1CI1 SC TR CI TR SLP256
Loading
Personal Weather Stations






























Interactive Weather Map New forecast layout! Learn more

10-Day Weather Forecast

Advertisements
Track Severe Weather on mobile